sensor_id;sensor_type;location;lat;lon;timestamp;pressure;altitude;pressure_sealevel;temperature;humidity
38718;BME280;24468;52.128;9.278;2023-02-28T00:00:35;102215.41;;;1.26;100.00
38718;BME280;24468;52.128;9.278;2023-02-28T00:03:01;102218.50;;;1.47;100.00
38718;BME280;24468;52.128;9.278;2023-02-28T00:05:28;102217.03;;;1.63;100.00
38718;BME280;24468;52.128;9.278;2023-02-28T00:07:55;102220.94;;;1.84;100.00
38718;BME280;24468;52.128;9.278;2023-02-28T00:10:25;102215.63;;;1.84;100.00
38718;BME280;24468;52.128;9.278;2023-02-28T00:12:53;102214.69;;;1.80;100.00
38718;BME280;24468;52.128;9.278;2023-02-28T00:15:20;102217.53;;;1.91;100.00
38718;BME280;24468;52.128;9.278;2023-02-28T00:17:46;102217.69;;;1.98;100.00
38718;BME280;24468;52.128;9.278;2023-02-28T00:20:13;102217.69;;;2.00;100.00
38718;BME280;24468;52.128;9.278;2023-02-28T00:22:41;102219.69;;;2.13;100.00
38718;BME280;24468;52.128;9.278;2023-02-28T00:25:09;102215.41;;;2.21;100.00
38718;BME280;24468;52.128;9.278;2023-02-28T00:27:37;102215.47;;;2.25;100.00
38718;BME280;24468;52.128;9.278;2023-02-28T00:30:04;102209.16;;;2.18;100.00
38718;BME280;24468;52.128;9.278;2023-02-28T00:32:30;102207.72;;;1.87;100.00
38718;BME280;24468;52.128;9.278;2023-02-28T00:34:56;102208.88;;;1.54;100.00
38718;BME280;24468;52.128;9.278;2023-02-28T00:37:21;102212.59;;;1.62;100.00
38718;BME280;24468;52.128;9.278;2023-02-28T00:39:47;102209.72;;;1.53;100.00
38718;BME280;24468;52.128;9.278;2023-02-28T00:42:13;102218.81;;;1.64;100.00
38718;BME280;24468;52.128;9.278;2023-02-28T00:44:38;102218.97;;;1.72;100.00
38718;BME280;24468;52.128;9.278;2023-02-28T00:47:04;102212.16;;;1.41;100.00
38718;BME280;24468;52.128;9.278;2023-02-28T00:49:30;102209.09;;;1.65;100.00
38718;BME280;24468;52.128;9.278;2023-02-28T00:51:55;102210.16;;;1.74;100.00
38718;BME280;24468;52.128;9.278;2023-02-28T00:54:22;102208.50;;;1.81;100.00
38718;BME280;24468;52.128;9.278;2023-02-28T00:56:48;102211.28;;;1.87;100.00
38718;BME280;24468;52.128;9.278;2023-02-28T00:59:15;102213.09;;;1.91;100.00
38718;BME280;24468;52.128;9.278;2023-02-28T01:01:42;102204.22;;;1.89;100.00
38718;BME280;24468;52.128;9.278;2023-02-28T01:04:08;102212.84;;;1.77;100.00
38718;BME280;24468;52.128;9.278;2023-02-28T01:06:34;102214.44;;;1.66;100.00
38718;BME280;24468;52.128;9.278;2023-02-28T01:09:00;102206.34;;;1.60;100.00
38718;BME280;24468;52.128;9.278;2023-02-28T01:11:26;102214.28;;;1.59;100.00
38718;BME280;24468;52.128;9.278;2023-02-28T01:13:51;102213.31;;;1.55;100.00
38718;BME280;24468;52.128;9.278;2023-02-28T01:16:18;102214.06;;;1.48;100.00
38718;BME280;24468;52.128;9.278;2023-02-28T01:18:43;102214.78;;;1.38;100.00
38718;BME280;24468;52.128;9.278;2023-02-28T01:21:16;102216.44;;;1.32;100.00
38718;BME280;24468;52.128;9.278;2023-02-28T01:23:43;102211.84;;;1.25;100.00
38718;BME280;24468;52.128;9.278;2023-02-28T01:26:14;102212.66;;;1.21;100.00
38718;BME280;24468;52.128;9.278;2023-02-28T01:28:40;102216.97;;;1.16;100.00
38718;BME280;24468;52.128;9.278;2023-02-28T01:31:06;102220.38;;;1.09;100.00
38718;BME280;24468;52.128;9.278;2023-02-28T01:33:32;102218.47;;;1.03;100.00
38718;BME280;24468;52.128;9.278;2023-02-28T01:36:00;102219.41;;;1.07;100.00
38718;BME280;24468;52.128;9.278;2023-02-28T01:38:27;102218.34;;;0.97;100.00
38718;BME280;24468;52.128;9.278;2023-02-28T01:40:53;102215.00;;;0.66;100.00
38718;BME280;24468;52.128;9.278;2023-02-28T01:43:52;102214.25;;;0.72;100.00
38718;BME280;24468;52.128;9.278;2023-02-28T01:46:14;102210.09;;;0.46;100.00
38718;BME280;24468;52.128;9.278;2023-02-28T01:49:03;102219.31;;;0.61;100.00
38718;BME280;24468;52.128;9.278;2023-02-28T01:51:40;102222.84;;;0.60;100.00
38718;BME280;24468;52.128;9.278;2023-02-28T01:54:15;102218.75;;;0.38;100.00
38718;BME280;24468;52.128;9.278;2023-02-28T01:56:47;102219.81;;;0.47;100.00
38718;BME280;24468;52.128;9.278;2023-02-28T01:59:43;102205.84;;;0.54;100.00
38718;BME280;24468;52.128;9.278;2023-02-28T02:02:15;102214.75;;;0.56;100.00
38718;BME280;24468;52.128;9.278;2023-02-28T02:04:57;102219.13;;;0.54;100.00
38718;BME280;24468;52.128;9.278;2023-02-28T02:07:25;102226.28;;;0.56;100.00
38718;BME280;24468;52.128;9.278;2023-02-28T02:18:57;102216.25;;;0.44;100.00
38718;BME280;24468;52.128;9.278;2023-02-28T02:25:22;102218.50;;;0.28;100.00
38718;BME280;24468;52.128;9.278;2023-02-28T02:34:41;102210.69;;;-0.01;100.00
38718;BME280;24468;52.128;9.278;2023-02-28T02:37:40;102209.41;;;-0.17;100.00
38718;BME280;24468;52.128;9.278;2023-02-28T02:43:15;102196.31;;;-0.11;100.00
38718;BME280;24468;52.128;9.278;2023-02-28T02:45:52;102206.81;;;-0.14;100.00
38718;BME280;24468;52.128;9.278;2023-02-28T02:48:24;102209.81;;;-0.35;100.00
38718;BME280;24468;52.128;9.278;2023-02-28T02:50:55;102213.16;;;-0.42;100.00
38718;BME280;24468;52.128;9.278;2023-02-28T02:53:30;102212.53;;;-0.65;100.00
38718;BME280;24468;52.128;9.278;2023-02-28T02:55:58;102208.66;;;-0.45;100.00
38718;BME280;24468;52.128;9.278;2023-02-28T02:58:31;102212.41;;;-0.36;100.00
38718;BME280;24468;52.128;9.278;2023-02-28T03:01:00;102208.94;;;-0.35;100.00
38718;BME280;24468;52.128;9.278;2023-02-28T03:03:28;102212.56;;;-0.32;100.00
38718;BME280;24468;52.128;9.278;2023-02-28T03:05:57;102218.66;;;-0.34;100.00
38718;BME280;24468;52.128;9.278;2023-02-28T03:08:24;102216.91;;;-0.34;100.00
38718;BME280;24468;52.128;9.278;2023-02-28T03:10:52;102213.31;;;-0.36;100.00
38718;BME280;24468;52.128;9.278;2023-02-28T03:16:46;102207.94;;;-0.39;100.00
38718;BME280;24468;52.128;9.278;2023-02-28T03:25:52;102212.19;;;-0.46;100.00
38718;BME280;24468;52.128;9.278;2023-02-28T03:34:10;102202.69;;;-0.69;100.00
38718;BME280;24468;52.128;9.278;2023-02-28T03:36:49;102209.97;;;-0.62;100.00
38718;BME280;24468;52.128;9.278;2023-02-28T03:39:27;102208.44;;;-0.52;100.00
38718;BME280;24468;52.128;9.278;2023-02-28T03:42:00;102205.84;;;-0.51;100.00
38718;BME280;24468;52.128;9.278;2023-02-28T03:44:37;102208.50;;;-0.51;100.00
38718;BME280;24468;52.128;9.278;2023-02-28T03:47:12;102205.91;;;-0.49;100.00
38718;BME280;24468;52.128;9.278;2023-02-28T03:49:51;102210.34;;;-0.48;100.00
38718;BME280;24468;52.128;9.278;2023-02-28T03:52:20;102210.28;;;-0.50;100.00
38718;BME280;24468;52.128;9.278;2023-02-28T03:54:52;102206.78;;;-0.49;100.00
38718;BME280;24468;52.128;9.278;2023-02-28T03:57:59;102205.78;;;-0.52;100.00
38718;BME280;24468;52.128;9.278;2023-02-28T04:00:39;102200.22;;;-0.63;100.00
38718;BME280;24468;52.128;9.278;2023-02-28T04:03:05;102199.50;;;-0.57;100.00
38718;BME280;24468;52.128;9.278;2023-02-28T04:05:31;102203.84;;;-0.59;100.00
38718;BME280;24468;52.128;9.278;2023-02-28T04:08:06;102192.06;;;-0.69;100.00
38718;BME280;24468;52.128;9.278;2023-02-28T04:10:31;102194.78;;;-0.68;100.00
38718;BME280;24468;52.128;9.278;2023-02-28T04:12:57;102203.53;;;-0.70;100.00
38718;BME280;24468;52.128;9.278;2023-02-28T04:15:23;102200.41;;;-0.87;100.00
38718;BME280;24468;52.128;9.278;2023-02-28T04:17:50;102209.75;;;-1.00;100.00
38718;BME280;24468;52.128;9.278;2023-02-28T04:20:16;102206.44;;;-0.93;100.00
38718;BME280;24468;52.128;9.278;2023-02-28T04:22:42;102204.69;;;-0.91;100.00
38718;BME280;24468;52.128;9.278;2023-02-28T04:25:07;102207.47;;;-0.87;100.00
38718;BME280;24468;52.128;9.278;2023-02-28T04:27:33;102203.16;;;-0.84;100.00
38718;BME280;24468;52.128;9.278;2023-02-28T04:29:59;102208.78;;;-0.72;100.00
38718;BME280;24468;52.128;9.278;2023-02-28T04:32:24;102210.53;;;-0.72;100.00
38718;BME280;24468;52.128;9.278;2023-02-28T04:34:50;102209.44;;;-0.80;100.00
38718;BME280;24468;52.128;9.278;2023-02-28T04:37:16;102219.94;;;-0.83;100.00
38718;BME280;24468;52.128;9.278;2023-02-28T04:39:42;102213.50;;;-0.92;100.00
38718;BME280;24468;52.128;9.278;2023-02-28T04:42:08;102215.31;;;-0.91;100.00
38718;BME280;24468;52.128;9.278;2023-02-28T04:44:34;102214.38;;;-0.93;100.00
38718;BME280;24468;52.128;9.278;2023-02-28T04:46:59;102221.06;;;-1.05;100.00
38718;BME280;24468;52.128;9.278;2023-02-28T04:49:25;102218.22;;;-1.12;100.00
38718;BME280;24468;52.128;9.278;2023-02-28T04:51:51;102218.41;;;-1.05;100.00
38718;BME280;24468;52.128;9.278;2023-02-28T04:54:18;102212.69;;;-1.19;100.00
38718;BME280;24468;52.128;9.278;2023-02-28T04:56:44;102214.53;;;-1.17;100.00
38718;BME280;24468;52.128;9.278;2023-02-28T04:59:09;102215.59;;;-1.12;100.00
38718;BME280;24468;52.128;9.278;2023-02-28T05:01:35;102216.38;;;-1.14;100.00
38718;BME280;24468;52.128;9.278;2023-02-28T05:04:03;102226.19;;;-1.10;100.00
38718;BME280;24468;52.128;9.278;2023-02-28T05:06:32;102217.38;;;-1.10;100.00
38718;BME280;24468;52.128;9.278;2023-02-28T05:08:59;102216.56;;;-1.08;100.00
38718;BME280;24468;52.128;9.278;2023-02-28T05:11:31;102227.19;;;-1.37;100.00
38718;BME280;24468;52.128;9.278;2023-02-28T05:14:02;102220.31;;;-1.30;100.00
38718;BME280;24468;52.128;9.278;2023-02-28T05:16:28;102222.22;;;-1.26;100.00
38718;BME280;24468;52.128;9.278;2023-02-28T05:18:54;102232.03;;;-1.22;100.00
38718;BME280;24468;52.128;9.278;2023-02-28T05:21:26;102228.53;;;-1.21;100.00
38718;BME280;24468;52.128;9.278;2023-02-28T05:23:53;102224.06;;;-1.23;100.00
38718;BME280;24468;52.128;9.278;2023-02-28T05:26:20;102232.84;;;-1.24;100.00
38718;BME280;24468;52.128;9.278;2023-02-28T05:28:46;102225.75;;;-1.25;100.00
38718;BME280;24468;52.128;9.278;2023-02-28T05:31:12;102234.44;;;-1.29;100.00
38718;BME280;24468;52.128;9.278;2023-02-28T05:33:37;102242.97;;;-1.40;100.00
38718;BME280;24468;52.128;9.278;2023-02-28T05:36:04;102235.66;;;-1.47;100.00
38718;BME280;24468;52.128;9.278;2023-02-28T05:38:29;102234.00;;;-1.43;100.00
38718;BME280;24468;52.128;9.278;2023-02-28T05:40:55;102237.78;;;-1.35;100.00
38718;BME280;24468;52.128;9.278;2023-02-28T05:43:21;102239.28;;;-1.45;100.00
38718;BME280;24468;52.128;9.278;2023-02-28T05:45:47;102239.13;;;-1.49;100.00
38718;BME280;24468;52.128;9.278;2023-02-28T05:48:12;102245.16;;;-1.53;100.00
38718;BME280;24468;52.128;9.278;2023-02-28T05:50:38;102249.44;;;-1.57;100.00
38718;BME280;24468;52.128;9.278;2023-02-28T05:53:03;102247.06;;;-1.49;100.00
38718;BME280;24468;52.128;9.278;2023-02-28T05:55:29;102248.47;;;-1.61;100.00
38718;BME280;24468;52.128;9.278;2023-02-28T05:57:55;102248.63;;;-1.82;100.00
38718;BME280;24468;52.128;9.278;2023-02-28T06:00:21;102242.97;;;-1.67;100.00
38718;BME280;24468;52.128;9.278;2023-02-28T06:02:47;102251.13;;;-1.59;100.00
38718;BME280;24468;52.128;9.278;2023-02-28T06:05:16;102249.09;;;-1.68;100.00
38718;BME280;24468;52.128;9.278;2023-02-28T06:07:43;102250.00;;;-1.67;100.00
38718;BME280;24468;52.128;9.278;2023-02-28T06:10:10;102251.13;;;-1.59;100.00
38718;BME280;24468;52.128;9.278;2023-02-28T06:12:37;102250.81;;;-1.70;100.00
38718;BME280;24468;52.128;9.278;2023-02-28T06:15:03;102257.63;;;-1.76;100.00
38718;BME280;24468;52.128;9.278;2023-02-28T06:17:29;102262.31;;;-1.68;100.00
38718;BME280;24468;52.128;9.278;2023-02-28T06:19:54;102257.81;;;-1.70;100.00
38718;BME280;24468;52.128;9.278;2023-02-28T06:22:20;102275.31;;;-1.75;100.00
38718;BME280;24468;52.128;9.278;2023-02-28T06:24:45;102268.72;;;-1.61;100.00
38718;BME280;24468;52.128;9.278;2023-02-28T06:27:11;102264.63;;;-1.51;100.00
38718;BME280;24468;52.128;9.278;2023-02-28T06:29:36;102270.72;;;-1.54;100.00
38718;BME280;24468;52.128;9.278;2023-02-28T06:32:05;102272.97;;;-1.39;100.00
38718;BME280;24468;52.128;9.278;2023-02-28T06:34:31;102260.63;;;-1.39;100.00
38718;BME280;24468;52.128;9.278;2023-02-28T06:36:59;102270.59;;;-1.31;100.00
38718;BME280;24468;52.128;9.278;2023-02-28T06:39:28;102272.00;;;-1.68;100.00
38718;BME280;24468;52.128;9.278;2023-02-28T06:41:54;102278.44;;;-1.62;100.00
38718;BME280;24468;52.128;9.278;2023-02-28T06:44:20;102272.09;;;-1.65;100.00
38718;BME280;24468;52.128;9.278;2023-02-28T06:46:46;102277.81;;;-1.53;100.00
38718;BME280;24468;52.128;9.278;2023-02-28T06:49:12;102274.50;;;-1.46;100.00
38718;BME280;24468;52.128;9.278;2023-02-28T06:51:40;102288.94;;;-1.63;100.00
38718;BME280;24468;52.128;9.278;2023-02-28T06:54:07;102291.00;;;-1.54;100.00
38718;BME280;24468;52.128;9.278;2023-02-28T06:56:35;102296.81;;;-1.39;100.00
38718;BME280;24468;52.128;9.278;2023-02-28T06:59:01;102294.69;;;-1.22;100.00
38718;BME280;24468;52.128;9.278;2023-02-28T07:01:26;102293.09;;;-1.17;100.00
38718;BME280;24468;52.128;9.278;2023-02-28T07:03:54;102291.00;;;-1.27;100.00
38718;BME280;24468;52.128;9.278;2023-02-28T07:06:22;102289.84;;;-1.36;100.00
38718;BME280;24468;52.128;9.278;2023-02-28T07:08:52;102298.78;;;-1.32;100.00
38718;BME280;24468;52.128;9.278;2023-02-28T07:11:19;102299.22;;;-1.18;100.00
38718;BME280;24468;52.128;9.278;2023-02-28T07:13:45;102297.00;;;-1.04;100.00
38718;BME280;24468;52.128;9.278;2023-02-28T07:16:12;102308.03;;;-0.91;100.00
38718;BME280;24468;52.128;9.278;2023-02-28T07:18:39;102300.47;;;-0.78;100.00
38718;BME280;24468;52.128;9.278;2023-02-28T07:21:08;102302.59;;;-0.67;100.00
38718;BME280;24468;52.128;9.278;2023-02-28T07:23:35;102302.56;;;-0.68;100.00
38718;BME280;24468;52.128;9.278;2023-02-28T07:26:01;102308.19;;;-0.57;100.00
38718;BME280;24468;52.128;9.278;2023-02-28T07:28:27;102307.53;;;-0.49;100.00
38718;BME280;24468;52.128;9.278;2023-02-28T07:30:52;102302.25;;;-0.49;100.00
38718;BME280;24468;52.128;9.278;2023-02-28T07:33:18;102305.00;;;-0.44;100.00
38718;BME280;24468;52.128;9.278;2023-02-28T07:35:43;102296.56;;;-0.31;100.00
38718;BME280;24468;52.128;9.278;2023-02-28T07:38:09;102304.81;;;-0.52;100.00
38718;BME280;24468;52.128;9.278;2023-02-28T07:40:35;102295.34;;;-0.42;100.00
38718;BME280;24468;52.128;9.278;2023-02-28T07:43:02;102294.06;;;-0.56;100.00
38718;BME280;24468;52.128;9.278;2023-02-28T07:45:28;102304.19;;;-0.41;100.00
38718;BME280;24468;52.128;9.278;2023-02-28T07:47:54;102297.06;;;-0.44;100.00
38718;BME280;24468;52.128;9.278;2023-02-28T07:50:20;102290.81;;;-0.14;100.00
38718;BME280;24468;52.128;9.278;2023-02-28T07:52:46;102286.91;;;0.05;100.00
38718;BME280;24468;52.128;9.278;2023-02-28T07:55:11;102294.50;;;0.24;100.00
38718;BME280;24468;52.128;9.278;2023-02-28T07:57:39;102302.66;;;0.30;100.00
38718;BME280;24468;52.128;9.278;2023-02-28T08:00:08;102291.38;;;0.40;100.00
38718;BME280;24468;52.128;9.278;2023-02-28T08:02:35;102297.22;;;0.60;100.00
38718;BME280;24468;52.128;9.278;2023-02-28T08:05:01;102288.50;;;0.68;100.00
38718;BME280;24468;52.128;9.278;2023-02-28T08:07:27;102305.72;;;0.83;100.00
38718;BME280;24468;52.128;9.278;2023-02-28T08:09:53;102298.00;;;0.94;100.00
38718;BME280;24468;52.128;9.278;2023-02-28T08:12:18;102294.47;;;0.94;100.00
38718;BME280;24468;52.128;9.278;2023-02-28T08:14:44;102286.72;;;1.04;100.00
38718;BME280;24468;52.128;9.278;2023-02-28T08:17:10;102292.06;;;1.06;100.00
38718;BME280;24468;52.128;9.278;2023-02-28T08:19:36;102289.34;;;1.03;100.00
38718;BME280;24468;52.128;9.278;2023-02-28T08:22:01;102297.63;;;0.77;100.00
38718;BME280;24468;52.128;9.278;2023-02-28T08:24:27;102289.72;;;0.80;100.00
38718;BME280;24468;52.128;9.278;2023-02-28T08:26:53;102301.03;;;0.73;100.00
38718;BME280;24468;52.128;9.278;2023-02-28T08:29:18;102299.09;;;1.04;100.00
38718;BME280;24468;52.128;9.278;2023-02-28T08:31:44;102300.22;;;1.15;100.00
38718;BME280;24468;52.128;9.278;2023-02-28T08:34:13;102297.97;;;0.93;100.00
38718;BME280;24468;52.128;9.278;2023-02-28T08:36:39;102297.88;;;0.88;100.00
38718;BME280;24468;52.128;9.278;2023-02-28T08:39:06;102294.53;;;0.98;100.00
38718;BME280;24468;52.128;9.278;2023-02-28T08:41:33;102301.59;;;0.96;100.00
38718;BME280;24468;52.128;9.278;2023-02-28T08:43:59;102287.34;;;1.32;100.00
38718;BME280;24468;52.128;9.278;2023-02-28T08:46:25;102291.69;;;1.71;100.00
38718;BME280;24468;52.128;9.278;2023-02-28T08:48:55;102298.59;;;2.08;100.00
38718;BME280;24468;52.128;9.278;2023-02-28T08:51:25;102287.31;;;2.21;100.00
38718;BME280;24468;52.128;9.278;2023-02-28T08:53:59;102289.31;;;2.35;100.00
38718;BME280;24468;52.128;9.278;2023-02-28T08:56:26;102284.31;;;2.53;100.00
38718;BME280;24468;52.128;9.278;2023-02-28T08:58:55;102286.03;;;2.50;100.00
38718;BME280;24468;52.128;9.278;2023-02-28T09:01:25;102285.03;;;3.01;100.00
38718;BME280;24468;52.128;9.278;2023-02-28T09:03:52;102283.63;;;3.26;97.83
38718;BME280;24468;52.128;9.278;2023-02-28T09:06:21;102292.31;;;3.12;96.57
38718;BME280;24468;52.128;9.278;2023-02-28T09:08:47;102298.25;;;3.55;100.00
38718;BME280;24468;52.128;9.278;2023-02-28T09:11:12;102301.88;;;2.98;100.00
38718;BME280;24468;52.128;9.278;2023-02-28T09:13:39;102287.91;;;3.15;100.00
38718;BME280;24468;52.128;9.278;2023-02-28T09:16:07;102289.38;;;3.56;100.00
38718;BME280;24468;52.128;9.278;2023-02-28T09:18:37;102288.66;;;3.73;100.00
38718;BME280;24468;52.128;9.278;2023-02-28T09:21:08;102286.22;;;3.93;100.00
38718;BME280;24468;52.128;9.278;2023-02-28T09:23:35;102280.03;;;3.97;100.00
38718;BME280;24468;52.128;9.278;2023-02-28T09:26:03;102286.47;;;4.14;100.00
38718;BME280;24468;52.128;9.278;2023-02-28T09:28:29;102285.38;;;3.97;96.41
38718;BME280;24468;52.128;9.278;2023-02-28T09:30:55;102290.72;;;3.95;91.82
38718;BME280;24468;52.128;9.278;2023-02-28T09:33:23;102290.31;;;4.49;89.86
38718;BME280;24468;52.128;9.278;2023-02-28T09:35:49;102298.38;;;4.50;88.48
38718;BME280;24468;52.128;9.278;2023-02-28T09:38:16;102284.22;;;4.65;88.07
38718;BME280;24468;52.128;9.278;2023-02-28T09:40:53;102298.28;;;4.42;83.68
38718;BME280;24468;52.128;9.278;2023-02-28T09:43:23;102292.09;;;4.46;83.59
38718;BME280;24468;52.128;9.278;2023-02-28T09:46:28;102280.63;;;4.63;81.36
38718;BME280;24468;52.128;9.278;2023-02-28T09:48:52;102285.84;;;4.46;81.64
38718;BME280;24468;52.128;9.278;2023-02-28T09:54:24;102287.69;;;4.53;79.78
38718;BME280;24468;52.128;9.278;2023-02-28T09:57:37;102293.97;;;4.60;79.05
38718;BME280;24468;52.128;9.278;2023-02-28T10:03:17;102281.81;;;5.00;74.10
38718;BME280;24468;52.128;9.278;2023-02-28T10:06:18;102274.59;;;4.87;73.96
38718;BME280;24468;52.128;9.278;2023-02-28T10:09:10;102283.63;;;5.03;73.08
38718;BME280;24468;52.128;9.278;2023-02-28T10:11:40;102281.22;;;5.64;72.08
38718;BME280;24468;52.128;9.278;2023-02-28T10:14:22;102277.59;;;5.45;72.29
38718;BME280;24468;52.128;9.278;2023-02-28T10:17:04;102278.50;;;5.50;73.28
38718;BME280;24468;52.128;9.278;2023-02-28T10:19:56;102277.72;;;5.76;72.69
38718;BME280;24468;52.128;9.278;2023-02-28T10:22:52;102276.53;;;5.12;69.90
38718;BME280;24468;52.128;9.278;2023-02-28T10:25:26;102280.16;;;5.25;69.33
38718;BME280;24468;52.128;9.278;2023-02-28T10:28:10;102276.72;;;5.43;70.16
38718;BME280;24468;52.128;9.278;2023-02-28T10:30:43;102274.78;;;5.19;69.58
38718;BME280;24468;52.128;9.278;2023-02-28T10:33:23;102269.66;;;5.71;69.29
38718;BME280;24468;52.128;9.278;2023-02-28T10:35:50;102274.63;;;4.92;67.57
38718;BME280;24468;52.128;9.278;2023-02-28T10:38:33;102273.06;;;5.30;68.88
38718;BME280;24468;52.128;9.278;2023-02-28T10:41:17;102265.72;;;4.96;66.77
38718;BME280;24468;52.128;9.278;2023-02-28T10:43:52;102271.00;;;4.88;67.43
38718;BME280;24468;52.128;9.278;2023-02-28T10:46:19;102261.44;;;5.22;66.87
38718;BME280;24468;52.128;9.278;2023-02-28T10:49:03;102271.25;;;5.28;64.50
38718;BME280;24468;52.128;9.278;2023-02-28T10:51:39;102261.78;;;6.14;63.67
38718;BME280;24468;52.128;9.278;2023-02-28T10:54:06;102271.22;;;5.17;64.75
38718;BME280;24468;52.128;9.278;2023-02-28T10:56:39;102267.91;;;5.79;68.39
38718;BME280;24468;52.128;9.278;2023-02-28T11:01:45;102262.50;;;5.66;67.07
38718;BME280;24468;52.128;9.278;2023-02-28T11:07:09;102259.03;;;5.94;64.09
38718;BME280;24468;52.128;9.278;2023-02-28T11:09:44;102259.09;;;6.20;64.81
38718;BME280;24468;52.128;9.278;2023-02-28T11:12:37;102257.19;;;5.76;63.79
38718;BME280;24468;52.128;9.278;2023-02-28T11:15:28;102256.41;;;6.43;63.61
38718;BME280;24468;52.128;9.278;2023-02-28T11:18:27;102258.22;;;6.54;60.42
38718;BME280;24468;52.128;9.278;2023-02-28T11:20:56;102254.50;;;5.78;60.51
38718;BME280;24468;52.128;9.278;2023-02-28T11:23:26;102256.28;;;5.77;60.99
38718;BME280;24468;52.128;9.278;2023-02-28T11:25:56;102251.94;;;6.07;61.38
38718;BME280;24468;52.128;9.278;2023-02-28T11:28:35;102242.94;;;5.91;60.26
38718;BME280;24468;52.128;9.278;2023-02-28T11:33:46;102255.38;;;5.78;60.69
38718;BME280;24468;52.128;9.278;2023-02-28T11:36:22;102243.81;;;5.86;60.33
38718;BME280;24468;52.128;9.278;2023-02-28T11:38:54;102242.78;;;5.41;61.18
38718;BME280;24468;52.128;9.278;2023-02-28T11:42:04;102249.97;;;5.49;59.94
38718;BME280;24468;52.128;9.278;2023-02-28T11:59:05;102226.91;;;6.39;55.26
38718;BME280;24468;52.128;9.278;2023-02-28T12:02:16;102221.56;;;6.66;54.73
38718;BME280;24468;52.128;9.278;2023-02-28T12:08:21;102213.47;;;6.77;54.36
38718;BME280;24468;52.128;9.278;2023-02-28T12:22:42;102199.22;;;6.52;55.11
38718;BME280;24468;52.128;9.278;2023-02-28T12:27:41;102203.69;;;6.59;54.01
38718;BME280;24468;52.128;9.278;2023-02-28T12:30:32;102208.13;;;6.63;53.38
38718;BME280;24468;52.128;9.278;2023-02-28T12:33:09;102190.16;;;6.99;54.62
38718;BME280;24468;52.128;9.278;2023-02-28T12:38:14;102192.06;;;6.39;53.62
38718;BME280;24468;52.128;9.278;2023-02-28T12:40:55;102190.31;;;5.98;54.73
38718;BME280;24468;52.128;9.278;2023-02-28T12:43:27;102183.94;;;6.94;53.98
38718;BME280;24468;52.128;9.278;2023-02-28T12:46:01;102173.28;;;5.93;55.49
38718;BME280;24468;52.128;9.278;2023-02-28T12:48:42;102190.31;;;6.10;56.09
38718;BME280;24468;52.128;9.278;2023-02-28T12:51:09;102190.25;;;5.90;55.89
38718;BME280;24468;52.128;9.278;2023-02-28T12:54:02;102179.53;;;5.83;56.70
38718;BME280;24468;52.128;9.278;2023-02-28T13:08:59;102163.50;;;6.38;55.69
38718;BME280;24468;52.128;9.278;2023-02-28T13:17:21;102146.34;;;7.03;54.47
38718;BME280;24468;52.128;9.278;2023-02-28T13:19:58;102151.00;;;6.34;54.15
38718;BME280;24468;52.128;9.278;2023-02-28T13:22:45;102150.09;;;6.35;55.09
38718;BME280;24468;52.128;9.278;2023-02-28T13:28:01;102150.06;;;6.53;56.24
38718;BME280;24468;52.128;9.278;2023-02-28T13:33:34;102147.38;;;5.89;56.74
38718;BME280;24468;52.128;9.278;2023-02-28T13:36:23;102139.38;;;5.87;58.16
38718;BME280;24468;52.128;9.278;2023-02-28T13:38:51;102139.34;;;5.83;58.58
38718;BME280;24468;52.128;9.278;2023-02-28T13:44:18;102147.38;;;5.69;58.82
38718;BME280;24468;52.128;9.278;2023-02-28T13:55:01;102131.25;;;5.47;57.24
38718;BME280;24468;52.128;9.278;2023-02-28T13:58:22;102129.50;;;5.78;56.87
38718;BME280;24468;52.128;9.278;2023-02-28T14:01:23;102130.41;;;5.73;56.99
38718;BME280;24468;52.128;9.278;2023-02-28T14:04:47;102130.44;;;5.90;57.54
38718;BME280;24468;52.128;9.278;2023-02-28T14:07:26;102130.47;;;5.99;55.73
38718;BME280;24468;52.128;9.278;2023-02-28T14:10:04;102118.81;;;6.38;55.38
38718;BME280;24468;52.128;9.278;2023-02-28T14:13:00;102118.84;;;6.26;55.52
38718;BME280;24468;52.128;9.278;2023-02-28T14:18:01;102102.63;;;6.74;55.46
38718;BME280;24468;52.128;9.278;2023-02-28T14:20:32;102112.22;;;7.28;53.82
38718;BME280;24468;52.128;9.278;2023-02-28T14:30:15;102106.34;;;6.11;55.75
38718;BME280;24468;52.128;9.278;2023-02-28T14:33:10;102109.91;;;6.07;56.76
38718;BME280;24468;52.128;9.278;2023-02-28T14:36:04;102108.97;;;6.56;55.21
38718;BME280;24468;52.128;9.278;2023-02-28T14:38:40;102100.88;;;6.65;55.69
38718;BME280;24468;52.128;9.278;2023-02-28T14:41:17;102101.75;;;6.75;54.92
38718;BME280;24468;52.128;9.278;2023-02-28T14:43:57;102103.44;;;6.91;54.38
38718;BME280;24468;52.128;9.278;2023-02-28T14:46:33;102103.28;;;7.25;54.64
38718;BME280;24468;52.128;9.278;2023-02-28T14:49:04;102109.66;;;7.01;53.79
38718;BME280;24468;52.128;9.278;2023-02-28T14:51:30;102101.72;;;6.81;53.83
38718;BME280;24468;52.128;9.278;2023-02-28T14:53:59;102115.97;;;6.92;53.21
38718;BME280;24468;52.128;9.278;2023-02-28T14:56:33;102107.63;;;7.46;52.72
38718;BME280;24468;52.128;9.278;2023-02-28T14:58:59;102109.75;;;6.82;53.52
38718;BME280;24468;52.128;9.278;2023-02-28T15:01:25;102113.41;;;6.58;53.47
38718;BME280;24468;52.128;9.278;2023-02-28T15:04:05;102119.63;;;6.73;53.44
38718;BME280;24468;52.128;9.278;2023-02-28T15:06:32;102106.06;;;7.06;52.70
38718;BME280;24468;52.128;9.278;2023-02-28T15:09:18;102114.28;;;6.70;53.16
38718;BME280;24468;52.128;9.278;2023-02-28T15:11:48;102098.88;;;7.15;52.77
38718;BME280;24468;52.128;9.278;2023-02-28T15:14:21;102101.47;;;7.30;52.35
38718;BME280;24468;52.128;9.278;2023-02-28T15:17:06;102105.81;;;7.52;53.11
38718;BME280;24468;52.128;9.278;2023-02-28T15:19:36;102104.84;;;7.63;52.60
38718;BME280;24468;52.128;9.278;2023-02-28T15:22:10;102097.94;;;7.22;52.60
38718;BME280;24468;52.128;9.278;2023-02-28T15:24:41;102106.94;;;7.10;52.15